sensor_id;sensor_type;location;lat;lon;timestamp;pressure;altitude;pressure_sealevel;temperature;humidity
20930;BME280;21895;47.072;15.132;2023-03-26T00:01:31;96325.00;;;2.90;74.93
20930;BME280;21895;47.072;15.132;2023-03-26T00:04:06;96321.00;;;2.86;75.45
20930;BME280;21895;47.072;15.132;2023-03-26T00:06:35;96322.00;;;2.97;75.55
20930;BME280;21895;47.072;15.132;2023-03-26T00:09:08;96319.00;;;2.93;75.63
20930;BME280;21895;47.072;15.132;2023-03-26T00:11:35;96327.00;;;3.16;77.05
20930;BME280;21895;47.072;15.132;2023-03-26T00:14:01;96324.00;;;3.17;77.16
20930;BME280;21895;47.072;15.132;2023-03-26T00:16:30;96321.00;;;3.39;78.11
20930;BME280;21895;47.072;15.132;2023-03-26T00:18:58;96317.00;;;3.43;75.76
20930;BME280;21895;47.072;15.132;2023-03-26T00:21:27;96327.00;;;3.57;77.54
20930;BME280;21895;47.072;15.132;2023-03-26T00:24:01;96328.00;;;3.63;75.73
20930;BME280;21895;47.072;15.132;2023-03-26T00:26:31;96338.00;;;3.60;74.89
20930;BME280;21895;47.072;15.132;2023-03-26T00:28:58;96333.00;;;3.54;77.70
20930;BME280;21895;47.072;15.132;2023-03-26T00:31:26;96333.00;;;3.54;75.31
20930;BME280;21895;47.072;15.132;2023-03-26T00:33:52;96332.00;;;3.66;79.02
20930;BME280;21895;47.072;15.132;2023-03-26T00:36:24;96321.00;;;3.39;73.67
20930;BME280;21895;47.072;15.132;2023-03-26T00:38:51;96326.00;;;2.99;71.81
20930;BME280;21895;47.072;15.132;2023-03-26T00:41:21;96320.00;;;2.59;73.56
20930;BME280;21895;47.072;15.132;2023-03-26T00:43:53;96321.00;;;2.48;74.82
20930;BME280;21895;47.072;15.132;2023-03-26T00:46:23;96317.00;;;2.54;76.04
20930;BME280;21895;47.072;15.132;2023-03-26T00:48:49;96326.00;;;2.63;76.84
20930;BME280;21895;47.072;15.132;2023-03-26T00:51:19;96318.00;;;2.69;78.20
20930;BME280;21895;47.072;15.132;2023-03-26T00:53:48;96320.00;;;2.78;78.88
20930;BME280;21895;47.072;15.132;2023-03-26T00:56:15;96309.00;;;2.91;78.58
20930;BME280;21895;47.072;15.132;2023-03-26T00:58:41;96307.00;;;2.90;77.56
20930;BME280;21895;47.072;15.132;2023-03-26T01:01:29;96301.00;;;2.54;75.93
20930;BME280;21895;47.072;15.132;2023-03-26T01:04:19;96295.00;;;2.60;75.61
20930;BME280;21895;47.072;15.132;2023-03-26T01:06:46;96303.00;;;2.65;76.78
20930;BME280;21895;47.072;15.132;2023-03-26T01:09:16;96300.00;;;2.67;78.55
20930;BME280;21895;47.072;15.132;2023-03-26T01:11:44;96304.00;;;2.70;76.91
20930;BME280;21895;47.072;15.132;2023-03-26T01:14:22;96292.00;;;2.64;76.62
20930;BME280;21895;47.072;15.132;2023-03-26T01:16:59;96284.00;;;2.68;76.48
20930;BME280;21895;47.072;15.132;2023-03-26T01:21:23;96276.00;;;2.63;76.82
20930;BME280;21895;47.072;15.132;2023-03-26T01:24:09;96265.00;;;2.76;75.76
20930;BME280;21895;47.072;15.132;2023-03-26T01:29:49;96267.00;;;2.75;77.89
20930;BME280;21895;47.072;15.132;2023-03-26T01:36:47;96263.00;;;2.56;75.64
20930;BME280;21895;47.072;15.132;2023-03-26T01:39:47;96258.00;;;2.47;76.79
20930;BME280;21895;47.072;15.132;2023-03-26T01:42:38;96263.00;;;2.36;75.14
20930;BME280;21895;47.072;15.132;2023-03-26T01:45:20;96260.00;;;2.44;74.57
20930;BME280;21895;47.072;15.132;2023-03-26T01:47:49;96245.00;;;2.35;75.77
20930;BME280;21895;47.072;15.132;2023-03-26T01:50:16;96244.00;;;2.40;77.13
20930;BME280;21895;47.072;15.132;2023-03-26T01:52:43;96238.00;;;2.54;78.65
20930;BME280;21895;47.072;15.132;2023-03-26T01:55:09;96236.00;;;2.61;76.72
20930;BME280;21895;47.072;15.132;2023-03-26T01:58:02;96246.00;;;2.53;75.61
20930;BME280;21895;47.072;15.132;2023-03-26T02:02:27;96244.00;;;2.46;75.13
20930;BME280;21895;47.072;15.132;2023-03-26T02:06:53;96260.00;;;2.41;76.26
20930;BME280;21895;47.072;15.132;2023-03-26T02:09:30;96251.00;;;2.77;76.38
20930;BME280;21895;47.072;15.132;2023-03-26T02:12:00;96252.00;;;2.58;75.34
20930;BME280;21895;47.072;15.132;2023-03-26T02:14:29;96251.00;;;2.45;75.32
20930;BME280;21895;47.072;15.132;2023-03-26T02:16:56;96236.00;;;2.40;74.94
20930;BME280;21895;47.072;15.132;2023-03-26T02:19:24;96253.00;;;2.30;74.98
20930;BME280;21895;47.072;15.132;2023-03-26T02:21:50;96241.00;;;2.33;75.87
20930;BME280;21895;47.072;15.132;2023-03-26T02:24:18;96246.00;;;2.34;77.20
20930;BME280;21895;47.072;15.132;2023-03-26T02:26:45;96244.00;;;2.56;76.89
20930;BME280;21895;47.072;15.132;2023-03-26T02:29:13;96248.00;;;2.50;78.43
20930;BME280;21895;47.072;15.132;2023-03-26T02:31:39;96256.00;;;2.55;77.99
20930;BME280;21895;47.072;15.132;2023-03-26T02:34:06;96261.00;;;2.55;78.21
20930;BME280;21895;47.072;15.132;2023-03-26T02:36:32;96259.00;;;2.70;77.91
20930;BME280;21895;47.072;15.132;2023-03-26T02:39:00;96251.00;;;2.72;77.69
20930;BME280;21895;47.072;15.132;2023-03-26T02:41:27;96254.00;;;3.02;76.89
20930;BME280;21895;47.072;15.132;2023-03-26T02:43:53;96264.00;;;2.97;76.60
20930;BME280;21895;47.072;15.132;2023-03-26T02:46:20;96258.00;;;2.83;77.09
20930;BME280;21895;47.072;15.132;2023-03-26T02:48:47;96254.00;;;2.89;74.78
20930;BME280;21895;47.072;15.132;2023-03-26T02:51:13;96263.00;;;2.68;73.93
20930;BME280;21895;47.072;15.132;2023-03-26T02:53:43;96256.00;;;2.49;74.85
20930;BME280;21895;47.072;15.132;2023-03-26T02:56:09;96258.00;;;2.45;76.15
20930;BME280;21895;47.072;15.132;2023-03-26T02:58:36;96262.00;;;2.59;76.17
20930;BME280;21895;47.072;15.132;2023-03-26T03:01:03;96261.00;;;2.50;75.54
20930;BME280;21895;47.072;15.132;2023-03-26T03:03:30;96271.00;;;2.58;74.92
20930;BME280;21895;47.072;15.132;2023-03-26T03:05:56;96265.00;;;2.37;73.63
20930;BME280;21895;47.072;15.132;2023-03-26T03:08:26;96268.00;;;2.41;73.63
20930;BME280;21895;47.072;15.132;2023-03-26T03:11:02;96260.00;;;2.11;73.80
20930;BME280;21895;47.072;15.132;2023-03-26T03:13:29;96263.00;;;2.14;73.94
20930;BME280;21895;47.072;15.132;2023-03-26T03:15:55;96258.00;;;1.97;73.24
20930;BME280;21895;47.072;15.132;2023-03-26T03:18:22;96261.00;;;1.91;73.76
20930;BME280;21895;47.072;15.132;2023-03-26T03:20:49;96263.00;;;1.87;74.21
20930;BME280;21895;47.072;15.132;2023-03-26T03:23:18;96261.00;;;1.92;75.20
20930;BME280;21895;47.072;15.132;2023-03-26T03:25:45;96260.00;;;1.95;75.53
20930;BME280;21895;47.072;15.132;2023-03-26T03:28:12;96255.00;;;2.07;75.92
20930;BME280;21895;47.072;15.132;2023-03-26T03:30:39;96263.00;;;2.02;74.39
20930;BME280;21895;47.072;15.132;2023-03-26T03:33:05;96255.00;;;2.14;76.34
20930;BME280;21895;47.072;15.132;2023-03-26T03:35:32;96246.00;;;2.34;77.81
20930;BME280;21895;47.072;15.132;2023-03-26T03:38:00;96245.00;;;2.48;78.69
20930;BME280;21895;47.072;15.132;2023-03-26T03:40:27;96239.00;;;2.49;75.78
20930;BME280;21895;47.072;15.132;2023-03-26T03:42:54;96243.00;;;2.47;73.76
20930;BME280;21895;47.072;15.132;2023-03-26T03:45:20;96236.00;;;2.37;72.53
20930;BME280;21895;47.072;15.132;2023-03-26T03:47:47;96234.00;;;2.14;72.99
20930;BME280;21895;47.072;15.132;2023-03-26T03:50:16;96254.00;;;2.14;73.71
20930;BME280;21895;47.072;15.132;2023-03-26T03:52:43;96251.00;;;2.16;73.70
20930;BME280;21895;47.072;15.132;2023-03-26T03:55:09;96258.00;;;2.30;77.39
20930;BME280;21895;47.072;15.132;2023-03-26T03:57:36;96262.00;;;2.59;78.43
20930;BME280;21895;47.072;15.132;2023-03-26T04:00:03;96262.00;;;2.69;78.87
20930;BME280;21895;47.072;15.132;2023-03-26T04:02:32;96264.00;;;2.97;78.28
20930;BME280;21895;47.072;15.132;2023-03-26T04:05:01;96265.00;;;2.94;78.24
20930;BME280;21895;47.072;15.132;2023-03-26T04:07:29;96261.00;;;3.01;78.00
20930;BME280;21895;47.072;15.132;2023-03-26T04:09:57;96273.00;;;3.02;77.68
20930;BME280;21895;47.072;15.132;2023-03-26T04:12:28;96278.00;;;3.14;77.36
20930;BME280;21895;47.072;15.132;2023-03-26T04:14:55;96281.00;;;3.12;77.58
20930;BME280;21895;47.072;15.132;2023-03-26T04:17:22;96288.00;;;3.08;77.64
20930;BME280;21895;47.072;15.132;2023-03-26T04:19:50;96281.00;;;3.14;77.38
20930;BME280;21895;47.072;15.132;2023-03-26T04:22:23;96275.00;;;3.07;77.82
20930;BME280;21895;47.072;15.132;2023-03-26T04:25:01;96276.00;;;3.21;76.64
20930;BME280;21895;47.072;15.132;2023-03-26T04:27:31;96272.00;;;2.91;70.33
20930;BME280;21895;47.072;15.132;2023-03-26T04:30:00;96272.00;;;2.70;71.21
20930;BME280;21895;47.072;15.132;2023-03-26T04:32:29;96280.00;;;2.49;70.52
20930;BME280;21895;47.072;15.132;2023-03-26T04:35:03;96269.00;;;2.22;72.98
20930;BME280;21895;47.072;15.132;2023-03-26T04:37:35;96262.00;;;2.11;72.92
20930;BME280;21895;47.072;15.132;2023-03-26T04:40:11;96266.00;;;2.12;74.53
20930;BME280;21895;47.072;15.132;2023-03-26T04:42:38;96258.00;;;2.19;75.48
20930;BME280;21895;47.072;15.132;2023-03-26T04:45:17;96248.00;;;2.14;73.31
20930;BME280;21895;47.072;15.132;2023-03-26T04:47:47;96253.00;;;2.01;71.22
20930;BME280;21895;47.072;15.132;2023-03-26T04:50:16;96255.00;;;1.97;74.55
20930;BME280;21895;47.072;15.132;2023-03-26T04:52:43;96251.00;;;1.91;75.20
20930;BME280;21895;47.072;15.132;2023-03-26T04:55:35;96245.00;;;1.76;72.72
20930;BME280;21895;47.072;15.132;2023-03-26T04:58:05;96241.00;;;1.77;75.25
20930;BME280;21895;47.072;15.132;2023-03-26T05:00:31;96245.00;;;1.97;77.70
20930;BME280;21895;47.072;15.132;2023-03-26T05:02:58;96242.00;;;2.04;74.59
20930;BME280;21895;47.072;15.132;2023-03-26T05:05:26;96243.00;;;1.88;73.87
20930;BME280;21895;47.072;15.132;2023-03-26T05:07:54;96235.00;;;2.01;75.79
20930;BME280;21895;47.072;15.132;2023-03-26T05:10:21;96231.00;;;1.97;73.24
20930;BME280;21895;47.072;15.132;2023-03-26T05:12:48;96241.00;;;1.73;72.33
20930;BME280;21895;47.072;15.132;2023-03-26T05:15:15;96233.00;;;1.71;72.58
20930;BME280;21895;47.072;15.132;2023-03-26T05:17:42;96243.00;;;1.55;71.94
20930;BME280;21895;47.072;15.132;2023-03-26T05:20:23;96237.00;;;1.60;73.45
20930;BME280;21895;47.072;15.132;2023-03-26T05:22:50;96235.00;;;2.09;75.16
20930;BME280;21895;47.072;15.132;2023-03-26T05:25:17;96237.00;;;2.45;77.19
20930;BME280;21895;47.072;15.132;2023-03-26T05:27:45;96223.00;;;2.83;78.25
20930;BME280;21895;47.072;15.132;2023-03-26T05:30:18;96215.00;;;3.20;76.50
20930;BME280;21895;47.072;15.132;2023-03-26T05:32:47;96223.00;;;3.55;75.83
20930;BME280;21895;47.072;15.132;2023-03-26T05:35:15;96222.00;;;3.60;74.59
20930;BME280;21895;47.072;15.132;2023-03-26T05:37:46;96231.00;;;3.59;75.07
20930;BME280;21895;47.072;15.132;2023-03-26T05:40:14;96227.00;;;3.61;75.20
20930;BME280;21895;47.072;15.132;2023-03-26T05:42:42;96219.00;;;3.64;75.50
20930;BME280;21895;47.072;15.132;2023-03-26T05:45:10;96220.00;;;3.68;75.36
20930;BME280;21895;47.072;15.132;2023-03-26T05:47:38;96206.00;;;3.94;74.69
20930;BME280;21895;47.072;15.132;2023-03-26T05:50:06;96216.00;;;4.05;73.93
20930;BME280;21895;47.072;15.132;2023-03-26T05:52:33;96219.00;;;4.10;73.14
20930;BME280;21895;47.072;15.132;2023-03-26T05:54:59;96219.00;;;3.88;69.28
20930;BME280;21895;47.072;15.132;2023-03-26T05:57:29;96211.00;;;3.56;68.87
20930;BME280;21895;47.072;15.132;2023-03-26T05:59:56;96209.00;;;3.56;71.13
20930;BME280;21895;47.072;15.132;2023-03-26T06:02:23;96205.00;;;3.87;72.45
20930;BME280;21895;47.072;15.132;2023-03-26T06:04:50;96200.00;;;4.25;73.17
20930;BME280;21895;47.072;15.132;2023-03-26T06:07:17;96195.00;;;4.12;73.72
20930;BME280;21895;47.072;15.132;2023-03-26T06:09:44;96193.00;;;4.14;71.61
20930;BME280;21895;47.072;15.132;2023-03-26T06:12:12;96190.00;;;3.97;70.66
20930;BME280;21895;47.072;15.132;2023-03-26T06:14:39;96179.00;;;4.04;71.16
20930;BME280;21895;47.072;15.132;2023-03-26T06:17:08;96179.00;;;4.10;72.43
20930;BME280;21895;47.072;15.132;2023-03-26T06:19:35;96169.00;;;4.30;72.17
20930;BME280;21895;47.072;15.132;2023-03-26T06:22:03;96185.00;;;4.55;71.84
20930;BME280;21895;47.072;15.132;2023-03-26T06:24:29;96177.00;;;4.97;72.68
20930;BME280;21895;47.072;15.132;2023-03-26T06:26:56;96171.00;;;5.45;71.99
20930;BME280;21895;47.072;15.132;2023-03-26T06:29:22;96166.00;;;5.87;69.97
20930;BME280;21895;47.072;15.132;2023-03-26T06:31:49;96173.00;;;6.01;68.83
20930;BME280;21895;47.072;15.132;2023-03-26T06:34:15;96188.00;;;6.07;68.34
20930;BME280;21895;47.072;15.132;2023-03-26T06:36:42;96186.00;;;6.05;68.45
20930;BME280;21895;47.072;15.132;2023-03-26T06:39:08;96197.00;;;6.07;68.56
20930;BME280;21895;47.072;15.132;2023-03-26T06:41:35;96210.00;;;6.35;69.12
20930;BME280;21895;47.072;15.132;2023-03-26T06:44:02;96222.00;;;6.37;69.02
20930;BME280;21895;47.072;15.132;2023-03-26T06:46:29;96223.00;;;6.45;68.41
20930;BME280;21895;47.072;15.132;2023-03-26T06:48:55;96227.00;;;6.34;68.67
20930;BME280;21895;47.072;15.132;2023-03-26T06:51:22;96222.00;;;6.45;68.84
20930;BME280;21895;47.072;15.132;2023-03-26T06:53:48;96211.00;;;6.46;68.46
20930;BME280;21895;47.072;15.132;2023-03-26T06:56:15;96209.00;;;6.48;69.37
20930;BME280;21895;47.072;15.132;2023-03-26T06:58:41;96211.00;;;6.55;70.12
20930;BME280;21895;47.072;15.132;2023-03-26T07:01:08;96216.00;;;6.78;69.21
20930;BME280;21895;47.072;15.132;2023-03-26T07:03:35;96205.00;;;6.89;68.29
20930;BME280;21895;47.072;15.132;2023-03-26T07:06:01;96205.00;;;6.81;68.59
20930;BME280;21895;47.072;15.132;2023-03-26T07:08:28;96205.00;;;6.96;69.30
20930;BME280;21895;47.072;15.132;2023-03-26T07:10:56;96198.00;;;7.11;69.02
20930;BME280;21895;47.072;15.132;2023-03-26T07:13:23;96194.00;;;7.32;68.56
20930;BME280;21895;47.072;15.132;2023-03-26T07:15:49;96199.00;;;7.59;66.66
20930;BME280;21895;47.072;15.132;2023-03-26T07:18:16;96186.00;;;7.52;66.42
20930;BME280;21895;47.072;15.132;2023-03-26T07:20:44;96189.00;;;7.71;66.29
20930;BME280;21895;47.072;15.132;2023-03-26T07:23:12;96179.00;;;7.90;65.36
20930;BME280;21895;47.072;15.132;2023-03-26T07:25:41;96177.00;;;8.17;64.62
20930;BME280;21895;47.072;15.132;2023-03-26T07:29:03;96168.00;;;8.37;64.87
20930;BME280;21895;47.072;15.132;2023-03-26T07:39:04;96172.00;;;8.63;63.50
20930;BME280;21895;47.072;15.132;2023-03-26T07:42:15;96171.00;;;8.79;64.21
20930;BME280;21895;47.072;15.132;2023-03-26T07:45:19;96170.00;;;8.80;63.56
20930;BME280;21895;47.072;15.132;2023-03-26T07:47:49;96159.00;;;8.79;63.09
20930;BME280;21895;47.072;15.132;2023-03-26T07:50:22;96156.00;;;8.78;63.47
20930;BME280;21895;47.072;15.132;2023-03-26T07:52:49;96149.00;;;8.81;63.91
20930;BME280;21895;47.072;15.132;2023-03-26T07:55:17;96132.00;;;8.93;63.82
20930;BME280;21895;47.072;15.132;2023-03-26T08:17:51;96137.00;;;10.00;60.69
20930;BME280;21895;47.072;15.132;2023-03-26T08:21:10;96112.00;;;10.36;59.88
20930;BME280;21895;47.072;15.132;2023-03-26T08:27:29;96113.00;;;10.74;59.17
20930;BME280;21895;47.072;15.132;2023-03-26T08:30:19;96111.00;;;10.55;59.12
20930;BME280;21895;47.072;15.132;2023-03-26T08:33:17;96113.00;;;10.69;57.72
20930;BME280;21895;47.072;15.132;2023-03-26T08:35:45;96111.00;;;10.74;57.31
20930;BME280;21895;47.072;15.132;2023-03-26T08:38:16;96114.00;;;10.91;57.74
20930;BME280;21895;47.072;15.132;2023-03-26T08:47:21;96105.00;;;11.34;56.09
20930;BME280;21895;47.072;15.132;2023-03-26T08:56:15;96073.00;;;11.70;55.06
20930;BME280;21895;47.072;15.132;2023-03-26T09:06:32;96058.00;;;12.30;53.27
20930;BME280;21895;47.072;15.132;2023-03-26T09:12:36;96057.00;;;12.29;53.73
20930;BME280;21895;47.072;15.132;2023-03-26T09:23:05;96038.00;;;12.92;51.81
20930;BME280;21895;47.072;15.132;2023-03-26T09:26:25;96023.00;;;12.91;48.72
20930;BME280;21895;47.072;15.132;2023-03-26T09:29:42;96011.00;;;13.17;48.80
20930;BME280;21895;47.072;15.132;2023-03-26T09:33:20;95999.00;;;13.28;47.82
20930;BME280;21895;47.072;15.132;2023-03-26T09:36:20;95988.00;;;13.50;48.45
20930;BME280;21895;47.072;15.132;2023-03-26T09:39:21;95989.00;;;13.73;48.81
20930;BME280;21895;47.072;15.132;2023-03-26T10:09:35;95942.00;;;15.00;45.06
20930;BME280;21895;47.072;15.132;2023-03-26T10:12:53;95929.00;;;15.29;43.27
20930;BME280;21895;47.072;15.132;2023-03-26T10:17:57;95923.00;;;15.51;43.92
20930;BME280;21895;47.072;15.132;2023-03-26T10:21:00;95910.00;;;15.54;45.77
20930;BME280;21895;47.072;15.132;2023-03-26T10:51:47;95869.00;;;16.48;43.27
20930;BME280;21895;47.072;15.132;2023-03-26T10:55:53;95857.00;;;17.02;41.89
20930;BME280;21895;47.072;15.132;2023-03-26T10:58:25;95846.00;;;16.82;40.50
20930;BME280;21895;47.072;15.132;2023-03-26T11:01:04;95842.00;;;17.32;40.52
20930;BME280;21895;47.072;15.132;2023-03-26T11:04:03;95845.00;;;17.27;39.34
20930;BME280;21895;47.072;15.132;2023-03-26T11:11:43;95810.00;;;16.96;39.63
20930;BME280;21895;47.072;15.132;2023-03-26T11:18:17;95806.00;;;16.80;38.42
20930;BME280;21895;47.072;15.132;2023-03-26T11:21:21;95808.00;;;17.24;37.04
20930;BME280;21895;47.072;15.132;2023-03-26T11:27:05;95795.00;;;17.21;36.60
20930;BME280;21895;47.072;15.132;2023-03-26T11:35:14;95761.00;;;17.34;39.32
20930;BME280;21895;47.072;15.132;2023-03-26T11:37:49;95752.00;;;17.19;40.06
20930;BME280;21895;47.072;15.132;2023-03-26T11:40:36;95748.00;;;17.25;40.33
20930;BME280;21895;47.072;15.132;2023-03-26T11:43:08;95742.00;;;17.40;40.37
20930;BME280;21895;47.072;15.132;2023-03-26T11:45:44;95725.00;;;17.57;39.77
20930;BME280;21895;47.072;15.132;2023-03-26T11:50:43;95723.00;;;17.44;40.22
20930;BME280;21895;47.072;15.132;2023-03-26T11:53:19;95712.00;;;17.28;41.13
20930;BME280;21895;47.072;15.132;2023-03-26T11:55:58;95709.00;;;17.25;41.44
20930;BME280;21895;47.072;15.132;2023-03-26T12:03:14;95703.00;;;17.00;43.31
20930;BME280;21895;47.072;15.132;2023-03-26T12:05:51;95707.00;;;17.15;43.00
20930;BME280;21895;47.072;15.132;2023-03-26T12:08:38;95701.00;;;17.08;42.89
20930;BME280;21895;47.072;15.132;2023-03-26T12:11:11;95684.00;;;16.79;43.05
20930;BME280;21895;47.072;15.132;2023-03-26T12:14:05;95680.00;;;16.65;42.93
20930;BME280;21895;47.072;15.132;2023-03-26T12:16:33;95677.00;;;16.92;42.75
20930;BME280;21895;47.072;15.132;2023-03-26T12:19:19;95673.00;;;17.17;43.04
20930;BME280;21895;47.072;15.132;2023-03-26T12:21:51;95667.00;;;17.66;41.93
20930;BME280;21895;47.072;15.132;2023-03-26T12:24:33;95663.00;;;17.26;41.16
20930;BME280;21895;47.072;15.132;2023-03-26T12:27:25;95656.00;;;16.91;42.02
20930;BME280;21895;47.072;15.132;2023-03-26T12:30:25;95657.00;;;16.67;42.07
20930;BME280;21895;47.072;15.132;2023-03-26T12:33:15;95650.00;;;16.84;42.12
20930;BME280;21895;47.072;15.132;2023-03-26T12:35:43;95643.00;;;16.92;41.12
20930;BME280;21895;47.072;15.132;2023-03-26T12:38:32;95642.00;;;16.93;42.24
20930;BME280;21895;47.072;15.132;2023-03-26T12:41:18;95641.00;;;17.27;42.47
20930;BME280;21895;47.072;15.132;2023-03-26T12:47:29;95633.00;;;17.53;40.43
20930;BME280;21895;47.072;15.132;2023-03-26T12:51:12;95621.00;;;17.66;40.10
20930;BME280;21895;47.072;15.132;2023-03-26T12:54:31;95615.00;;;17.83;39.66
20930;BME280;21895;47.072;15.132;2023-03-26T13:00:55;95612.00;;;17.71;40.67
20930;BME280;21895;47.072;15.132;2023-03-26T13:03:48;95614.00;;;17.29;41.44
20930;BME280;21895;47.072;15.132;2023-03-26T13:07:11;95600.00;;;17.46;41.91
20930;BME280;21895;47.072;15.132;2023-03-26T13:12:42;95596.00;;;17.47;42.52
20930;BME280;21895;47.072;15.132;2023-03-26T13:15:35;95590.00;;;17.35;41.83
20930;BME280;21895;47.072;15.132;2023-03-26T13:35:11;95574.00;;;17.36;43.62
20930;BME280;21895;47.072;15.132;2023-03-26T13:45:45;95538.00;;;17.15;46.34
20930;BME280;21895;47.072;15.132;2023-03-26T13:48:21;95528.00;;;16.43;48.72
20930;BME280;21895;47.072;15.132;2023-03-26T13:51:22;95532.00;;;16.35;49.67
20930;BME280;21895;47.072;15.132;2023-03-26T13:54:08;95534.00;;;16.25;49.93
20930;BME280;21895;47.072;15.132;2023-03-26T13:56:51;95536.00;;;16.45;49.87
20930;BME280;21895;47.072;15.132;2023-03-26T13:59:37;95535.00;;;16.57;49.84
20930;BME280;21895;47.072;15.132;2023-03-26T14:04:37;95523.00;;;16.30;51.02
20930;BME280;21895;47.072;15.132;2023-03-26T14:07:20;95509.00;;;16.22;51.16
20930;BME280;21895;47.072;15.132;2023-03-26T14:10:11;95508.00;;;16.29;50.23
20930;BME280;21895;47.072;15.132;2023-03-26T14:15:53;95506.00;;;16.17;50.47
20930;BME280;21895;47.072;15.132;2023-03-26T14:21:24;95501.00;;;16.16;51.22
20930;BME280;21895;47.072;15.132;2023-03-26T14:24:26;95496.00;;;16.18;50.96
20930;BME280;21895;47.072;15.132;2023-03-26T14:33:11;95490.00;;;16.38;50.71
20930;BME280;21895;47.072;15.132;2023-03-26T14:36:18;95487.00;;;16.48;50.08
20930;BME280;21895;47.072;15.132;2023-03-26T14:47:36;95476.00;;;16.55;51.28
20930;BME280;21895;47.072;15.132;2023-03-26T14:57:10;95444.00;;;16.31;52.23
20930;BME280;21895;47.072;15.132;2023-03-26T15:27:36;95430.00;;;15.64;54.04
20930;BME280;21895;47.072;15.132;2023-03-26T15:35:25;95416.00;;;15.39;54.36
20930;BME280;21895;47.072;15.132;2023-03-26T15:40:44;95421.00;;;15.06;57.30
20930;BME280;21895;47.072;15.132;2023-03-26T15:43:15;95420.00;;;15.14;56.15
20930;BME280;21895;47.072;15.132;2023-03-26T15:54:15;95429.00;;;14.83;57.49
20930;BME280;21895;47.072;15.132;2023-03-26T15:58:48;95447.00;;;14.92;57.83
20930;BME280;21895;47.072;15.132;2023-03-26T16:10:44;95456.00;;;13.88;51.39
20930;BME280;21895;47.072;15.132;2023-03-26T16:14:09;95441.00;;;13.69;51.30
20930;BME280;21895;47.072;15.132;2023-03-26T16:16:55;95441.00;;;13.48;53.57
20930;BME280;21895;47.072;15.132;2023-03-26T16:25:28;95448.00;;;13.39;54.07
20930;BME280;21895;47.072;15.132;2023-03-26T16:30:28;95449.00;;;13.05;57.30
20930;BME280;21895;47.072;15.132;2023-03-26T16:33:18;95449.00;;;12.78;59.89
20930;BME280;21895;47.072;15.132;2023-03-26T16:39:40;95451.00;;;12.13;62.90
20930;BME280;21895;47.072;15.132;2023-03-26T16:42:34;95454.00;;;11.77;65.31
20930;BME280;21895;47.072;15.132;2023-03-26T16:45:28;95444.00;;;11.46;66.38
20930;BME280;21895;47.072;15.132;2023-03-26T16:48:33;95445.00;;;11.20;68.26
20930;BME280;21895;47.072;15.132;2023-03-26T16:53:49;95447.00;;;10.96;69.68
20930;BME280;21895;47.072;15.132;2023-03-26T16:58:33;95435.00;;;10.96;70.98
20930;BME280;21895;47.072;15.132;2023-03-26T17:02:32;95429.00;;;11.04;68.93
20930;BME280;21895;47.072;15.132;2023-03-26T17:07:40;95428.00;;;10.64;69.93
20930;BME280;21895;47.072;15.132;2023-03-26T17:10:56;95431.00;;;10.93;68.94
20930;BME280;21895;47.072;15.132;2023-03-26T17:15:34;95441.00;;;10.81;70.19
20930;BME280;21895;47.072;15.132;2023-03-26T17:18:51;95456.00;;;10.77;71.86
20930;BME280;21895;47.072;15.132;2023-03-26T17:23:26;95463.00;;;11.10;71.96
20930;BME280;21895;47.072;15.132;2023-03-26T17:27:51;95459.00;;;11.24;70.61
20930;BME280;21895;47.072;15.132;2023-03-26T17:33:41;95459.00;;;11.57;68.45
20930;BME280;21895;47.072;15.132;2023-03-26T17:36:39;95469.00;;;11.34;69.83
20930;BME280;21895;47.072;15.132;2023-03-26T17:40:55;95463.00;;;11.44;70.78
20930;BME280;21895;47.072;15.132;2023-03-26T17:45:19;95456.00;;;11.50;71.01
20930;BME280;21895;47.072;15.132;2023-03-26T17:47:58;95461.00;;;11.63;70.71
20930;BME280;21895;47.072;15.132;2023-03-26T17:50:49;95454.00;;;11.42;72.61
20930;BME280;21895;47.072;15.132;2023-03-26T17:53:31;95456.00;;;11.36;73.41
20930;BME280;21895;47.072;15.132;2023-03-26T17:56:04;95452.00;;;11.37;73.14
20930;BME280;21895;47.072;15.132;2023-03-26T17:58:37;95461.00;;;11.28;73.89
20930;BME280;21895;47.072;15.132;2023-03-26T18:01:42;95452.00;;;11.27;74.53
20930;BME280;21895;47.072;15.132;2023-03-26T18:04:24;95447.00;;;11.44;74.24
20930;BME280;21895;47.072;15.132;2023-03-26T18:09:20;95444.00;;;11.59;73.91
20930;BME280;21895;47.072;15.132;2023-03-26T18:19:51;95428.00;;;11.22;74.89
20930;BME280;21895;47.072;15.132;2023-03-26T18:22:27;95419.00;;;11.14;75.45
20930;BME280;21895;47.072;15.132;2023-03-26T18:25:01;95412.00;;;11.25;75.07
20930;BME280;21895;47.072;15.132;2023-03-26T18:27:39;95409.00;;;11.13;74.77
20930;BME280;21895;47.072;15.132;2023-03-26T18:30:22;95409.00;;;11.18;74.37
20930;BME280;21895;47.072;15.132;2023-03-26T18:33:13;95402.00;;;11.05;74.17
20930;BME280;21895;47.072;15.132;2023-03-26T18:35:49;95406.00;;;10.94;75.14
20930;BME280;21895;47.072;15.132;2023-03-26T18:38:22;95407.00;;;10.91;75.38
20930;BME280;21895;47.072;15.132;2023-03-26T18:41:05;95411.00;;;10.84;75.28
20930;BME280;21895;47.072;15.132;2023-03-26T18:43:34;95418.00;;;10.78;76.18
20930;BME280;21895;47.072;15.132;2023-03-26T18:46:12;95421.00;;;10.68;76.65
20930;BME280;21895;47.072;15.132;2023-03-26T18:48:40;95421.00;;;10.68;76.91
20930;BME280;21895;47.072;15.132;2023-03-26T18:51:07;95420.00;;;10.69;76.73
20930;BME280;21895;47.072;15.132;2023-03-26T18:53:46;95423.00;;;10.75;76.80
20930;BME280;21895;47.072;15.132;2023-03-26T18:56:33;95416.00;;;10.74;77.11
20930;BME280;21895;47.072;15.132;2023-03-26T18:59:04;95419.00;;;10.79;76.83
20930;BME280;21895;47.072;15.132;2023-03-26T19:01:34;95419.00;;;10.68;77.13
20930;BME280;21895;47.072;15.132;2023-03-26T19:04:05;95408.00;;;10.67;76.60
20930;BME280;21895;47.072;15.132;2023-03-26T19:06:38;95410.00;;;10.80;76.63